createdAt,value
2018-10-03T00:00:31.587Z,0
2018-10-03T00:03:30.741Z,0
2018-10-03T00:06:30.774Z,0
2018-10-03T00:09:30.978Z,0
2018-10-03T00:12:31.014Z,0
2018-10-03T00:15:31.178Z,0
2018-10-03T00:18:31.552Z,0
2018-10-03T00:21:30.587Z,0
2018-10-03T00:24:30.777Z,0
2018-10-03T00:27:30.924Z,0
2018-10-03T00:30:30.864Z,0
2018-10-03T00:33:30.853Z,0
2018-10-03T00:36:30.858Z,0
2018-10-03T00:39:31.260Z,0
2018-10-03T00:42:31.246Z,0
2018-10-03T00:45:31.330Z,0
2018-10-03T00:48:31.461Z,0
2018-10-03T00:51:30.541Z,0
2018-10-03T00:54:30.614Z,0
2018-10-03T00:57:30.753Z,0
2018-10-03T01:00:31.144Z,0
2018-10-03T01:03:31.379Z,0
2018-10-03T01:06:31.404Z,0
2018-10-03T01:09:31.442Z,0
2018-10-03T01:12:31.433Z,0
2018-10-03T01:15:31.607Z,0
2018-10-03T01:18:30.771Z,0
2018-10-03T01:21:30.874Z,0
2018-10-03T01:24:30.981Z,0
2018-10-03T01:27:34.584Z,0
2018-10-03T01:30:30.658Z,0
2018-10-03T01:33:30.898Z,0
2018-10-03T01:36:31.074Z,0
2018-10-03T01:39:31.251Z,0
2018-10-03T01:42:31.489Z,0
2018-10-03T01:45:30.613Z,0
2018-10-03T01:48:30.600Z,0
2018-10-03T01:51:30.814Z,0
2018-10-03T01:54:30.977Z,0
2018-10-03T01:57:31.066Z,0
2018-10-03T02:00:31.241Z,0
2018-10-03T02:03:31.229Z,0
2018-10-03T02:06:31.538Z,0
2018-10-03T02:09:30.866Z,0
2018-10-03T02:12:30.956Z,0
2018-10-03T02:15:31.033Z,0
2018-10-03T02:18:31.333Z,0
2018-10-03T02:21:31.545Z,0
2018-10-03T02:24:30.817Z,0
2018-10-03T02:27:31.008Z,0
2018-10-03T02:30:31.022Z,0
2018-10-03T02:33:31.137Z,0
2018-10-03T02:36:31.227Z,0
2018-10-03T02:39:31.430Z,0
2018-10-03T02:42:31.853Z,0
2018-10-03T02:45:31.005Z,0
2018-10-03T02:48:31.066Z,0
2018-10-03T02:51:31.041Z,0
2018-10-03T02:54:31.627Z,0
2018-10-03T02:57:30.891Z,0
2018-10-03T03:00:31.263Z,0
2018-10-03T03:03:31.438Z,0
2018-10-03T03:06:30.618Z,0
2018-10-03T03:09:30.737Z,0
2018-10-03T03:12:31.155Z,0
2018-10-03T03:15:31.225Z,0
2018-10-03T03:18:31.424Z,0
2018-10-03T03:21:31.456Z,0
2018-10-03T03:24:30.618Z,0
2018-10-03T03:27:30.885Z,0
2018-10-03T03:30:30.993Z,0
2018-10-03T03:33:31.099Z,0
2018-10-03T03:36:31.346Z,0
2018-10-03T03:39:31.490Z,0
2018-10-03T03:42:30.765Z,0
2018-10-03T03:45:31.051Z,0
2018-10-03T03:48:31.223Z,0
2018-10-03T03:51:31.419Z,0
2018-10-03T03:54:31.725Z,0
2018-10-03T03:57:31.013Z,0
2018-10-03T04:00:30.962Z,0
2018-10-03T04:03:31.083Z,0
2018-10-03T04:06:31.330Z,0
2018-10-03T04:09:31.396Z,0
2018-10-03T04:12:31.555Z,0
2018-10-03T04:15:30.898Z,0
2018-10-03T04:18:31.160Z,0
2018-10-03T04:21:48.785Z,0
2018-10-03T04:24:31.003Z,0
2018-10-03T04:27:31.743Z,0
2018-10-03T04:30:31.120Z,0
2018-10-03T04:33:31.250Z,0
2018-10-03T04:36:31.815Z,0
2018-10-03T04:39:31.223Z,0
2018-10-03T04:42:31.567Z,0
2018-10-03T04:45:30.734Z,0
2018-10-03T04:48:31.073Z,0
2018-10-03T04:51:31.278Z,0
2018-10-03T04:54:31.489Z,0
2018-10-03T04:57:30.766Z,0
2018-10-03T05:00:31.608Z,1
2018-10-03T05:03:31.168Z,2
2018-10-03T05:06:31.267Z,2
2018-10-03T05:09:31.741Z,5
2018-10-03T05:12:31.214Z,7
2018-10-03T05:15:31.810Z,12
2018-10-03T05:18:31.479Z,20
2018-10-03T05:21:31.264Z,42
2018-10-03T05:24:31.628Z,59
2018-10-03T05:27:31.304Z,81
2018-10-03T05:30:31.822Z,107
2018-10-03T05:33:31.487Z,138
2018-10-03T05:36:31.009Z,187
2018-10-03T05:39:31.577Z,252
2018-10-03T05:42:31.143Z,335
2018-10-03T05:45:31.674Z,437
2018-10-03T05:48:31.569Z,561
2018-10-03T05:51:31.266Z,698
2018-10-03T05:54:31.624Z,834
2018-10-03T05:57:31.088Z,994
2018-10-03T06:00:31.534Z,1179
2018-10-03T06:03:30.792Z,1355
2018-10-03T06:06:31.355Z,1546
2018-10-03T06:09:31.877Z,1742
2018-10-03T06:12:31.892Z,1881
2018-10-03T06:15:31.686Z,2042
2018-10-03T06:18:31.036Z,2299
2018-10-03T06:21:31.826Z,2850
2018-10-03T06:24:31.268Z,2368
2018-10-03T06:27:31.732Z,2387
2018-10-03T06:30:31.318Z,3362
2018-10-03T06:33:31.962Z,4206
2018-10-03T06:36:31.628Z,3923
2018-10-03T06:39:31.237Z,3400
2018-10-03T06:42:31.438Z,3598
2018-10-03T06:45:31.017Z,4239
2018-10-03T06:48:31.497Z,3953
2018-10-03T06:51:30.791Z,4280
2018-10-03T06:54:31.221Z,4295
2018-10-03T06:57:31.641Z,4789
2018-10-03T07:00:31.461Z,5000
2018-10-03T07:03:30.865Z,5852
2018-10-03T07:06:31.322Z,6482
2018-10-03T07:09:32.507Z,6767
2018-10-03T07:12:31.954Z,7124
2018-10-03T07:15:31.398Z,7011
2018-10-03T07:18:30.783Z,8163
2018-10-03T07:21:31.231Z,8498
2018-10-03T07:24:31.420Z,7869
2018-10-03T07:27:31.631Z,7882
2018-10-03T07:30:31.062Z,7875
2018-10-03T07:33:31.509Z,8628
2018-10-03T07:36:30.838Z,8738
2018-10-03T07:39:31.159Z,8459
2018-10-03T07:42:31.620Z,9432
2018-10-03T07:45:30.757Z,8497
2018-10-03T07:48:31.466Z,10089
2018-10-03T07:51:31.453Z,10684
2018-10-03T07:54:30.675Z,11054
2018-10-03T07:57:31.308Z,12059
2018-10-03T08:00:33.640Z,17747
2018-10-03T08:03:32.309Z,17277
2018-10-03T08:06:31.529Z,12672
2018-10-03T08:09:30.778Z,27048
2018-10-03T08:12:31.038Z,30546
2018-10-03T08:15:31.303Z,23187
2018-10-03T08:18:31.599Z,9508
2018-10-03T08:21:31.005Z,23733
2018-10-03T08:24:31.574Z,34455
2018-10-03T08:27:31.113Z,34733
2018-10-03T08:30:31.241Z,35482
2018-10-03T08:33:31.704Z,30002
2018-10-03T08:36:31.002Z,37594
2018-10-03T08:39:31.460Z,38172
2018-10-03T08:42:31.862Z,39902
2018-10-03T08:45:31.539Z,43628
2018-10-03T08:48:31.034Z,22951
2018-10-03T08:51:31.410Z,15540
2018-10-03T08:54:30.729Z,42978
2018-10-03T08:57:31.134Z,38145
2018-10-03T09:00:31.670Z,31059
2018-10-03T09:03:31.219Z,34649
2018-10-03T09:06:32.063Z,24000
2018-10-03T09:09:31.511Z,40526
2018-10-03T09:12:31.083Z,29661
2018-10-03T09:15:31.711Z,46642
2018-10-03T09:18:31.307Z,35799
2018-10-03T09:21:32.031Z,32764
2018-10-03T09:24:31.559Z,29142
2018-10-03T09:27:30.944Z,29226
2018-10-03T09:30:31.507Z,32709
2018-10-03T09:33:30.935Z,31100
2018-10-03T09:36:31.290Z,32168
2018-10-03T09:39:31.608Z,34348
2018-10-03T09:42:31.257Z,50111
2018-10-03T09:45:31.548Z,15636
2018-10-03T09:48:31.085Z,18093
2018-10-03T09:51:31.308Z,13912
2018-10-03T09:54:31.642Z,13298
2018-10-03T09:57:30.741Z,9522
2018-10-03T10:01:37.170Z,12711
2018-10-03T10:03:31.521Z,13502
2018-10-03T10:06:30.977Z,23831
2018-10-03T10:09:31.289Z,9813
2018-10-03T10:12:31.943Z,11758
2018-10-03T10:15:31.475Z,28062
2018-10-03T10:18:30.995Z,32619
2018-10-03T10:21:31.332Z,37321
2018-10-03T10:24:31.570Z,47956
2018-10-03T10:27:31.073Z,45142
2018-10-03T10:30:31.496Z,21657
2018-10-03T10:33:30.789Z,20223
2018-10-03T10:36:31.225Z,21092
2018-10-03T10:39:31.696Z,19731
2018-10-03T10:42:31.033Z,21478
2018-10-03T10:45:31.366Z,22797
2018-10-03T10:48:31.755Z,22208
2018-10-03T10:51:31.235Z,33472
2018-10-03T10:54:31.399Z,38642
2018-10-03T10:57:31.513Z,11805
2018-10-03T11:00:30.770Z,17571
2018-10-03T11:03:31.122Z,26593
2018-10-03T11:06:31.549Z,14898
2018-10-03T11:09:31.154Z,50181
2018-10-03T11:12:31.484Z,21784
2018-10-03T11:15:31.166Z,50612
2018-10-03T11:18:30.928Z,11118
2018-10-03T11:21:31.306Z,8358
2018-10-03T11:24:32.535Z,7396
2018-10-03T11:27:31.663Z,10071
2018-10-03T11:30:31.080Z,14319
2018-10-03T11:33:31.505Z,11290
2018-10-03T11:36:30.833Z,13742
2018-10-03T11:39:31.138Z,12924
2018-10-03T11:42:31.485Z,15872
2018-10-03T11:45:30.784Z,12061
2018-10-03T11:48:31.395Z,10826
2018-10-03T11:51:30.901Z,11893
2018-10-03T11:54:31.309Z,11580
2018-10-03T11:57:31.625Z,11582
2018-10-03T12:00:31.157Z,13183
2018-10-03T12:03:31.883Z,13694
2018-10-03T12:06:31.460Z,11753
2018-10-03T12:09:31.322Z,12092
2018-10-03T12:12:31.820Z,9115
2018-10-03T12:15:31.096Z,7676
2018-10-03T12:18:31.814Z,8768
2018-10-03T12:21:31.155Z,7997
2018-10-03T12:24:31.477Z,9640
2018-10-03T12:27:30.857Z,12336
2018-10-03T12:30:31.332Z,8558
2018-10-03T12:33:31.052Z,6785
2018-10-03T12:36:31.360Z,8725
2018-10-03T12:39:31.635Z,8592
2018-10-03T12:42:31.030Z,7420
2018-10-03T12:45:32.501Z,10003
2018-10-03T12:48:30.880Z,10290
2018-10-03T12:51:31.108Z,10484
2018-10-03T12:54:31.406Z,7898
2018-10-03T12:57:31.902Z,9467
2018-10-03T13:00:35.777Z,9081
2018-10-03T13:03:31.006Z,8717
2018-10-03T13:06:31.280Z,8188
2018-10-03T13:09:31.821Z,8468
2018-10-03T13:12:31.277Z,7519
2018-10-03T13:15:31.688Z,8356
2018-10-03T13:18:31.090Z,9013
2018-10-03T13:21:31.482Z,9056
2018-10-03T13:24:31.075Z,9524
2018-10-03T13:27:31.653Z,9494
2018-10-03T13:30:31.184Z,7678
2018-10-03T13:33:31.711Z,7258
2018-10-03T13:36:31.148Z,8464
2018-10-03T13:39:31.399Z,8593
2018-10-03T13:42:31.621Z,7504
2018-10-03T13:45:31.069Z,9558
2018-10-03T13:48:31.547Z,8306
2018-10-03T13:51:30.983Z,6949
2018-10-03T13:54:31.401Z,6728
2018-10-03T13:57:30.767Z,6412
2018-10-03T14:00:31.423Z,6131
2018-10-03T14:03:30.645Z,6033
2018-10-03T14:06:31.144Z,7381
2018-10-03T14:09:31.364Z,6507
2018-10-03T14:12:31.876Z,5557
2018-10-03T14:15:31.177Z,5838
2018-10-03T14:18:31.657Z,6160
2018-10-03T14:21:31.023Z,5817
2018-10-03T14:24:31.805Z,5490
2018-10-03T14:27:31.431Z,5317
2018-10-03T14:30:31.918Z,5274
2018-10-03T14:33:31.282Z,4955
2018-10-03T14:36:31.633Z,4960
2018-10-03T14:39:30.941Z,4544
2018-10-03T14:42:31.508Z,4450
2018-10-03T14:45:30.911Z,4559
2018-10-03T14:48:31.404Z,4538
2018-10-03T14:51:31.930Z,4535
2018-10-03T14:54:31.380Z,4657
2018-10-03T14:57:32.112Z,4577
2018-10-03T15:00:31.629Z,4356
2018-10-03T15:03:31.312Z,4207
2018-10-03T15:06:31.738Z,4172
2018-10-03T15:09:31.027Z,3953
2018-10-03T15:12:31.455Z,4002
2018-10-03T15:15:30.972Z,4138
2018-10-03T15:18:31.436Z,4106
2018-10-03T15:21:30.926Z,3782
2018-10-03T15:24:31.353Z,3612
2018-10-03T15:27:31.802Z,3491
2018-10-03T15:30:31.305Z,3395
2018-10-03T15:33:31.608Z,3361
2018-10-03T15:36:31.577Z,3118
2018-10-03T15:39:30.993Z,2936
2018-10-03T15:42:31.718Z,2780
2018-10-03T15:45:30.897Z,2677
2018-10-03T15:48:31.509Z,2503
2018-10-03T15:51:31.029Z,2280
2018-10-03T15:54:31.493Z,2076
2018-10-03T15:57:30.713Z,1948
2018-10-03T16:00:31.312Z,1839
2018-10-03T16:03:37.169Z,1698
2018-10-03T16:06:31.883Z,1547
2018-10-03T16:09:31.347Z,1437
2018-10-03T16:12:31.913Z,1358
2018-10-03T16:15:31.358Z,1267
2018-10-03T16:18:31.679Z,1188
2018-10-03T16:21:31.111Z,1095
2018-10-03T16:24:31.428Z,1027
2018-10-03T16:27:30.915Z,955
2018-10-03T16:30:31.175Z,915
2018-10-03T16:33:31.815Z,890
2018-10-03T16:36:31.430Z,825
2018-10-03T16:39:30.978Z,705
2018-10-03T16:42:31.492Z,642
2018-10-03T16:45:31.085Z,588
2018-10-03T16:48:31.736Z,513
2018-10-03T16:51:31.119Z,430
2018-10-03T16:54:31.309Z,363
2018-10-03T16:57:31.872Z,302
2018-10-03T17:00:31.300Z,248
2018-10-03T17:03:31.582Z,190
2018-10-03T17:06:30.895Z,136
2018-10-03T17:09:31.316Z,93
2018-10-03T17:12:31.703Z,61
2018-10-03T17:15:31.221Z,39
2018-10-03T17:18:31.369Z,24
2018-10-03T17:21:31.643Z,14
2018-10-03T17:24:32.415Z,8
2018-10-03T17:27:31.889Z,4
2018-10-03T17:30:31.486Z,2
2018-10-03T17:33:31.014Z,1
2018-10-03T17:36:31.390Z,1
2018-10-03T17:39:32.888Z,1
2018-10-03T17:42:31.399Z,0
2018-10-03T17:45:31.580Z,0
2018-10-03T17:48:30.982Z,0
2018-10-03T17:51:31.511Z,0
2018-10-03T17:54:30.917Z,0
2018-10-03T17:57:31.224Z,0
2018-10-03T18:00:31.585Z,0
2018-10-03T18:03:30.902Z,0
2018-10-03T18:06:31.291Z,0
2018-10-03T18:09:31.767Z,0
2018-10-03T18:12:32.386Z,0
2018-10-03T18:15:31.014Z,0
2018-10-03T18:18:31.547Z,0
2018-10-03T18:21:30.921Z,0
2018-10-03T18:24:31.223Z,0
2018-10-03T18:27:31.520Z,0
2018-10-03T18:30:30.798Z,0
2018-10-03T18:33:31.157Z,0
2018-10-03T18:36:31.475Z,0
2018-10-03T18:39:30.957Z,0
2018-10-03T18:42:31.537Z,0
2018-10-03T18:45:30.896Z,0
2018-10-03T18:48:31.533Z,0
2018-10-03T18:51:30.688Z,0
2018-10-03T18:54:31.137Z,0
2018-10-03T18:57:31.864Z,0
2018-10-03T19:00:31.192Z,0
2018-10-03T19:03:31.437Z,0
2018-10-03T19:06:31.865Z,0
2018-10-03T19:09:31.091Z,0
2018-10-03T19:12:31.950Z,0
2018-10-03T19:15:36.571Z,0
2018-10-03T19:18:31.211Z,0
2018-10-03T19:21:31.598Z,0
2018-10-03T19:24:30.888Z,0
2018-10-03T19:27:31.056Z,0
2018-10-03T19:30:31.459Z,0
2018-10-03T19:33:30.953Z,0
2018-10-03T19:36:31.126Z,0
2018-10-03T19:39:31.680Z,0
2018-10-03T19:42:31.503Z,0
2018-10-03T19:45:31.169Z,0
2018-10-03T19:48:32.240Z,0
2018-10-03T19:51:30.913Z,0
2018-10-03T19:54:31.113Z,0
2018-10-03T19:57:31.743Z,0
2018-10-03T20:00:31.197Z,0
2018-10-03T20:03:32.001Z,0
2018-10-03T20:06:31.716Z,0
2018-10-03T20:09:31.125Z,0
2018-10-03T20:12:31.876Z,0
2018-10-03T20:15:31.166Z,0
2018-10-03T20:18:31.589Z,0
2018-10-03T20:21:31.313Z,0
2018-10-03T20:24:36.109Z,0
2018-10-03T20:27:31.904Z,0
2018-10-03T20:30:31.262Z,0
2018-10-03T20:33:31.698Z,0
2018-10-03T20:36:32.172Z,0
2018-10-03T20:39:31.650Z,0
2018-10-03T20:42:31.193Z,0
2018-10-03T20:45:31.517Z,0
2018-10-03T20:48:30.811Z,0
2018-10-03T20:51:31.102Z,0
2018-10-03T20:54:31.736Z,0
2018-10-03T20:57:31.145Z,0
2018-10-03T21:00:31.424Z,0
2018-10-03T21:03:31.631Z,0
2018-10-03T21:06:30.914Z,0
2018-10-03T21:09:31.204Z,0
2018-10-03T21:12:31.599Z,0
2018-10-03T21:15:30.938Z,0
2018-10-03T21:18:31.490Z,0
2018-10-03T21:21:30.727Z,0
2018-10-03T21:24:30.910Z,0
2018-10-03T21:27:31.248Z,0
2018-10-03T21:30:31.496Z,0
2018-10-03T21:33:30.803Z,0
2018-10-03T21:36:30.914Z,0
2018-10-03T21:39:31.278Z,0
2018-10-03T21:42:31.535Z,0
2018-10-03T21:45:31.145Z,0
2018-10-03T21:48:31.629Z,0
2018-10-03T21:51:30.921Z,0
2018-10-03T21:54:31.103Z,0
2018-10-03T21:57:31.468Z,0
2018-10-03T22:01:03.432Z,0
2018-10-03T22:03:31.972Z,0
2018-10-03T22:06:31.444Z,0
2018-10-03T22:09:30.834Z,0
2018-10-03T22:12:31.032Z,0
2018-10-03T22:15:31.637Z,0
2018-10-03T22:18:30.849Z,0
2018-10-03T22:21:31.283Z,0
2018-10-03T22:24:31.463Z,0
2018-10-03T22:27:31.887Z,0
2018-10-03T22:30:31.093Z,0
2018-10-03T22:33:31.377Z,0
2018-10-03T22:36:31.588Z,0
2018-10-03T22:39:30.923Z,0
2018-10-03T22:42:31.289Z,0
2018-10-03T22:45:31.434Z,0
2018-10-03T22:48:31.639Z,0
2018-10-03T22:51:30.954Z,0
2018-10-03T22:54:31.323Z,0
2018-10-03T22:57:31.726Z,0
2018-10-03T23:00:30.939Z,0
2018-10-03T23:03:31.190Z,0
2018-10-03T23:06:31.607Z,0
2018-10-03T23:09:30.790Z,0
2018-10-03T23:12:30.981Z,0
2018-10-03T23:15:31.301Z,0
2018-10-03T23:18:31.698Z,0
2018-10-03T23:21:30.843Z,0
2018-10-03T23:24:30.894Z,0
2018-10-03T23:27:31.097Z,0
2018-10-03T23:30:31.370Z,0
2018-10-03T23:33:31.500Z,0
2018-10-03T23:36:30.519Z,0
2018-10-03T23:39:31.594Z,0
2018-10-03T23:42:30.860Z,0
2018-10-03T23:45:30.831Z,0
2018-10-03T23:48:31.201Z,0
2018-10-03T23:51:31.359Z,0
2018-10-03T23:54:31.411Z,0
2018-10-03T23:57:31.716Z,0
